sensor_id;sensor_type;location;lat;lon;timestamp;P1;durP1;ratioP1;P2;durP2;ratioP2
51286;SDS011;37364;46.974;18.916;2022-07-29T00:01:55;11.63;;;3.55;;
51286;SDS011;37364;46.974;18.916;2022-07-29T00:04:26;12.20;;;4.40;;
51286;SDS011;37364;46.974;18.916;2022-07-29T00:06:56;17.52;;;4.07;;
51286;SDS011;37364;46.974;18.916;2022-07-29T00:09:32;7.05;;;3.65;;
51286;SDS011;37364;46.974;18.916;2022-07-29T00:12:21;18.58;;;4.28;;
51286;SDS011;37364;46.974;18.916;2022-07-29T00:14:55;8.40;;;3.90;;
51286;SDS011;37364;46.974;18.916;2022-07-29T00:17:26;15.85;;;3.22;;
51286;SDS011;37364;46.974;18.916;2022-07-29T00:19:56;10.43;;;3.38;;
51286;SDS011;37364;46.974;18.916;2022-07-29T00:22:27;13.40;;;3.92;;
51286;SDS011;37364;46.974;18.916;2022-07-29T00:24:57;19.65;;;4.30;;
51286;SDS011;37364;46.974;18.916;2022-07-29T00:27:31;24.10;;;4.30;;
51286;SDS011;37364;46.974;18.916;2022-07-29T00:30:02;11.13;;;3.65;;
51286;SDS011;37364;46.974;18.916;2022-07-29T00:32:34;10.63;;;3.97;;
51286;SDS011;37364;46.974;18.916;2022-07-29T00:35:04;7.35;;;3.50;;
51286;SDS011;37364;46.974;18.916;2022-07-29T00:37:48;18.42;;;3.50;;
51286;SDS011;37364;46.974;18.916;2022-07-29T00:40:19;16.52;;;4.00;;
51286;SDS011;37364;46.974;18.916;2022-07-29T00:42:52;9.32;;;3.80;;
51286;SDS011;37364;46.974;18.916;2022-07-29T00:45:24;11.27;;;3.75;;
51286;SDS011;37364;46.974;18.916;2022-07-29T00:47:59;6.32;;;3.17;;
51286;SDS011;37364;46.974;18.916;2022-07-29T00:50:31;7.10;;;3.60;;
51286;SDS011;37364;46.974;18.916;2022-07-29T00:53:02;10.90;;;3.80;;
51286;SDS011;37364;46.974;18.916;2022-07-29T00:55:34;12.00;;;3.55;;
51286;SDS011;37364;46.974;18.916;2022-07-29T00:58:08;13.30;;;3.97;;
51286;SDS011;37364;46.974;18.916;2022-07-29T01:00:38;8.13;;;4.13;;
51286;SDS011;37364;46.974;18.916;2022-07-29T01:03:16;6.35;;;3.83;;
51286;SDS011;37364;46.974;18.916;2022-07-29T01:05:46;11.27;;;3.78;;
51286;SDS011;37364;46.974;18.916;2022-07-29T01:08:17;17.80;;;4.88;;
51286;SDS011;37364;46.974;18.916;2022-07-29T01:10:49;15.40;;;4.75;;
51286;SDS011;37364;46.974;18.916;2022-07-29T01:13:24;23.15;;;5.43;;
51286;SDS011;37364;46.974;18.916;2022-07-29T01:15:56;8.15;;;4.40;;
51286;SDS011;37364;46.974;18.916;2022-07-29T01:18:33;16.15;;;5.28;;
51286;SDS011;37364;46.974;18.916;2022-07-29T01:21:21;22.83;;;5.20;;
51286;SDS011;37364;46.974;18.916;2022-07-29T01:24:11;11.82;;;5.10;;
51286;SDS011;37364;46.974;18.916;2022-07-29T01:26:54;14.07;;;5.57;;
51286;SDS011;37364;46.974;18.916;2022-07-29T01:29:33;10.57;;;4.80;;
51286;SDS011;37364;46.974;18.916;2022-07-29T01:32:08;16.40;;;5.40;;
51286;SDS011;37364;46.974;18.916;2022-07-29T01:34:55;15.90;;;5.97;;
51286;SDS011;37364;46.974;18.916;2022-07-29T01:37:32;13.55;;;5.43;;
51286;SDS011;37364;46.974;18.916;2022-07-29T01:40:09;18.23;;;4.88;;
51286;SDS011;37364;46.974;18.916;2022-07-29T01:42:50;23.58;;;6.15;;
51286;SDS011;37364;46.974;18.916;2022-07-29T01:45:29;15.32;;;4.60;;
51286;SDS011;37364;46.974;18.916;2022-07-29T01:48:10;14.38;;;5.43;;
51286;SDS011;37364;46.974;18.916;2022-07-29T01:50:46;15.23;;;5.72;;
51286;SDS011;37364;46.974;18.916;2022-07-29T01:53:21;26.60;;;5.38;;
51286;SDS011;37364;46.974;18.916;2022-07-29T01:56:03;14.07;;;5.50;;
51286;SDS011;37364;46.974;18.916;2022-07-29T01:58:36;11.55;;;5.38;;
51286;SDS011;37364;46.974;18.916;2022-07-29T02:01:13;21.45;;;6.10;;
51286;SDS011;37364;46.974;18.916;2022-07-29T02:03:46;12.95;;;5.53;;
51286;SDS011;37364;46.974;18.916;2022-07-29T02:06:18;11.15;;;5.03;;
51286;SDS011;37364;46.974;18.916;2022-07-29T02:08:51;10.00;;;5.28;;
51286;SDS011;37364;46.974;18.916;2022-07-29T02:11:23;11.50;;;5.45;;
51286;SDS011;37364;46.974;18.916;2022-07-29T02:13:54;12.52;;;5.35;;
51286;SDS011;37364;46.974;18.916;2022-07-29T02:16:31;19.80;;;5.63;;
51286;SDS011;37364;46.974;18.916;2022-07-29T02:19:03;22.80;;;5.78;;
51286;SDS011;37364;46.974;18.916;2022-07-29T02:21:36;17.60;;;4.75;;
51286;SDS011;37364;46.974;18.916;2022-07-29T02:24:07;34.17;;;5.75;;
51286;SDS011;37364;46.974;18.916;2022-07-29T02:26:41;15.18;;;4.93;;
51286;SDS011;37364;46.974;18.916;2022-07-29T02:29:14;16.30;;;5.75;;
51286;SDS011;37364;46.974;18.916;2022-07-29T02:31:49;21.80;;;5.50;;
51286;SDS011;37364;46.974;18.916;2022-07-29T02:34:21;24.63;;;4.80;;
51286;SDS011;37364;46.974;18.916;2022-07-29T02:36:53;15.75;;;4.47;;
51286;SDS011;37364;46.974;18.916;2022-07-29T02:39:25;15.75;;;5.82;;
51286;SDS011;37364;46.974;18.916;2022-07-29T02:41:58;10.07;;;4.50;;
51286;SDS011;37364;46.974;18.916;2022-07-29T02:44:32;19.27;;;4.93;;
51286;SDS011;37364;46.974;18.916;2022-07-29T02:47:10;20.73;;;4.55;;
51286;SDS011;37364;46.974;18.916;2022-07-29T02:49:48;10.65;;;6.00;;
51286;SDS011;37364;46.974;18.916;2022-07-29T02:52:26;18.38;;;5.88;;
51286;SDS011;37364;46.974;18.916;2022-07-29T02:55:01;22.05;;;5.57;;
51286;SDS011;37364;46.974;18.916;2022-07-29T02:57:41;9.73;;;4.78;;
51286;SDS011;37364;46.974;18.916;2022-07-29T03:00:21;8.25;;;4.60;;
51286;SDS011;37364;46.974;18.916;2022-07-29T03:02:56;11.88;;;5.38;;
51286;SDS011;37364;46.974;18.916;2022-07-29T03:05:29;19.60;;;4.78;;
51286;SDS011;37364;46.974;18.916;2022-07-29T03:08:03;6.97;;;4.78;;
51286;SDS011;37364;46.974;18.916;2022-07-29T03:10:35;10.45;;;5.97;;
51286;SDS011;37364;46.974;18.916;2022-07-29T03:13:07;11.15;;;5.18;;
51286;SDS011;37364;46.974;18.916;2022-07-29T03:15:39;17.08;;;4.97;;
51286;SDS011;37364;46.974;18.916;2022-07-29T03:18:14;10.00;;;5.47;;
51286;SDS011;37364;46.974;18.916;2022-07-29T03:23:18;15.48;;;4.88;;
51286;SDS011;37364;46.974;18.916;2022-07-29T03:25:50;14.45;;;5.18;;
51286;SDS011;37364;46.974;18.916;2022-07-29T03:28:22;8.20;;;5.38;;
51286;SDS011;37364;46.974;18.916;2022-07-29T03:30:54;9.13;;;5.25;;
51286;SDS011;37364;46.974;18.916;2022-07-29T03:33:27;8.88;;;5.07;;
51286;SDS011;37364;46.974;18.916;2022-07-29T03:35:58;11.77;;;5.40;;
51286;SDS011;37364;46.974;18.916;2022-07-29T03:38:29;7.30;;;5.03;;
51286;SDS011;37364;46.974;18.916;2022-07-29T03:41:05;18.85;;;5.35;;
51286;SDS011;37364;46.974;18.916;2022-07-29T03:43:39;12.40;;;5.15;;
51286;SDS011;37364;46.974;18.916;2022-07-29T03:46:15;11.13;;;5.65;;
51286;SDS011;37364;46.974;18.916;2022-07-29T03:48:52;13.93;;;5.57;;
51286;SDS011;37364;46.974;18.916;2022-07-29T03:51:28;16.23;;;5.97;;
51286;SDS011;37364;46.974;18.916;2022-07-29T03:54:00;24.77;;;5.57;;
51286;SDS011;37364;46.974;18.916;2022-07-29T03:56:38;15.05;;;5.25;;
51286;SDS011;37364;46.974;18.916;2022-07-29T03:59:10;9.70;;;5.03;;
51286;SDS011;37364;46.974;18.916;2022-07-29T04:01:41;21.13;;;5.78;;
51286;SDS011;37364;46.974;18.916;2022-07-29T04:04:16;17.30;;;5.65;;
51286;SDS011;37364;46.974;18.916;2022-07-29T04:06:47;12.52;;;5.88;;
51286;SDS011;37364;46.974;18.916;2022-07-29T04:09:18;8.73;;;5.63;;
51286;SDS011;37364;46.974;18.916;2022-07-29T04:11:48;16.15;;;5.30;;
51286;SDS011;37364;46.974;18.916;2022-07-29T04:14:29;14.32;;;5.53;;
51286;SDS011;37364;46.974;18.916;2022-07-29T04:17:02;16.33;;;5.10;;
51286;SDS011;37364;46.974;18.916;2022-07-29T04:19:36;11.50;;;5.65;;
51286;SDS011;37364;46.974;18.916;2022-07-29T04:22:09;13.35;;;5.28;;
51286;SDS011;37364;46.974;18.916;2022-07-29T04:24:39;13.45;;;5.93;;
51286;SDS011;37364;46.974;18.916;2022-07-29T04:27:10;13.90;;;5.55;;
51286;SDS011;37364;46.974;18.916;2022-07-29T04:29:40;24.63;;;6.95;;
51286;SDS011;37364;46.974;18.916;2022-07-29T04:32:23;10.30;;;4.95;;
51286;SDS011;37364;46.974;18.916;2022-07-29T04:34:56;20.55;;;6.30;;
51286;SDS011;37364;46.974;18.916;2022-07-29T04:37:27;10.60;;;5.68;;
51286;SDS011;37364;46.974;18.916;2022-07-29T04:42:47;9.48;;;5.97;;
51286;SDS011;37364;46.974;18.916;2022-07-29T04:45:20;18.58;;;5.90;;
51286;SDS011;37364;46.974;18.916;2022-07-29T04:47:52;16.83;;;6.10;;
51286;SDS011;37364;46.974;18.916;2022-07-29T04:50:26;17.77;;;5.50;;
51286;SDS011;37364;46.974;18.916;2022-07-29T04:52:58;11.35;;;5.70;;
51286;SDS011;37364;46.974;18.916;2022-07-29T04:55:29;18.75;;;6.20;;
51286;SDS011;37364;46.974;18.916;2022-07-29T04:57:59;11.40;;;5.65;;
51286;SDS011;37364;46.974;18.916;2022-07-29T05:00:30;18.10;;;6.70;;
51286;SDS011;37364;46.974;18.916;2022-07-29T05:03:07;11.27;;;6.25;;
51286;SDS011;37364;46.974;18.916;2022-07-29T05:05:43;19.50;;;5.97;;
51286;SDS011;37364;46.974;18.916;2022-07-29T05:08:13;14.45;;;6.20;;
51286;SDS011;37364;46.974;18.916;2022-07-29T05:10:44;18.38;;;7.43;;
51286;SDS011;37364;46.974;18.916;2022-07-29T05:13:15;17.17;;;6.43;;
51286;SDS011;37364;46.974;18.916;2022-07-29T05:15:46;13.88;;;5.97;;
51286;SDS011;37364;46.974;18.916;2022-07-29T05:18:19;8.07;;;6.70;;
51286;SDS011;37364;46.974;18.916;2022-07-29T05:20:54;16.98;;;6.97;;
51286;SDS011;37364;46.974;18.916;2022-07-29T05:23:25;11.25;;;6.38;;
51286;SDS011;37364;46.974;18.916;2022-07-29T05:25:56;18.15;;;6.43;;
51286;SDS011;37364;46.974;18.916;2022-07-29T05:28:28;15.20;;;6.75;;
51286;SDS011;37364;46.974;18.916;2022-07-29T05:31:03;26.50;;;6.18;;
51286;SDS011;37364;46.974;18.916;2022-07-29T05:33:35;12.82;;;6.18;;
51286;SDS011;37364;46.974;18.916;2022-07-29T05:36:08;13.52;;;6.80;;
51286;SDS011;37364;46.974;18.916;2022-07-29T05:38:43;18.35;;;6.50;;
51286;SDS011;37364;46.974;18.916;2022-07-29T05:41:14;13.82;;;5.65;;
51286;SDS011;37364;46.974;18.916;2022-07-29T05:43:45;17.10;;;7.00;;
51286;SDS011;37364;46.974;18.916;2022-07-29T05:46:16;19.60;;;6.20;;
51286;SDS011;37364;46.974;18.916;2022-07-29T05:48:48;21.05;;;6.18;;
51286;SDS011;37364;46.974;18.916;2022-07-29T05:51:26;16.83;;;6.18;;
51286;SDS011;37364;46.974;18.916;2022-07-29T05:53:57;26.13;;;6.47;;
51286;SDS011;37364;46.974;18.916;2022-07-29T05:56:28;17.63;;;6.72;;
51286;SDS011;37364;46.974;18.916;2022-07-29T05:58:59;16.05;;;6.28;;
51286;SDS011;37364;46.974;18.916;2022-07-29T06:01:43;10.32;;;5.80;;
51286;SDS011;37364;46.974;18.916;2022-07-29T06:04:14;18.92;;;5.85;;
51286;SDS011;37364;46.974;18.916;2022-07-29T06:06:48;14.45;;;5.38;;
51286;SDS011;37364;46.974;18.916;2022-07-29T06:09:18;24.05;;;6.15;;
51286;SDS011;37364;46.974;18.916;2022-07-29T06:11:49;14.95;;;6.47;;
51286;SDS011;37364;46.974;18.916;2022-07-29T06:14:19;22.20;;;6.20;;
51286;SDS011;37364;46.974;18.916;2022-07-29T06:16:49;13.25;;;6.10;;
51286;SDS011;37364;46.974;18.916;2022-07-29T06:19:19;19.00;;;6.85;;
51286;SDS011;37364;46.974;18.916;2022-07-29T06:21:52;21.38;;;7.30;;
51286;SDS011;37364;46.974;18.916;2022-07-29T06:26:53;12.27;;;5.70;;
51286;SDS011;37364;46.974;18.916;2022-07-29T06:29:24;14.00;;;5.80;;
51286;SDS011;37364;46.974;18.916;2022-07-29T06:31:54;13.45;;;5.50;;
51286;SDS011;37364;46.974;18.916;2022-07-29T06:34:24;15.15;;;6.30;;
51286;SDS011;37364;46.974;18.916;2022-07-29T06:36:59;13.57;;;5.82;;
51286;SDS011;37364;46.974;18.916;2022-07-29T06:39:29;17.50;;;5.60;;
51286;SDS011;37364;46.974;18.916;2022-07-29T06:41:59;16.70;;;6.00;;
51286;SDS011;37364;46.974;18.916;2022-07-29T06:44:30;8.55;;;4.93;;
51286;SDS011;37364;46.974;18.916;2022-07-29T06:47:00;10.70;;;5.10;;
51286;SDS011;37364;46.974;18.916;2022-07-29T06:49:31;7.93;;;4.90;;
51286;SDS011;37364;46.974;18.916;2022-07-29T06:52:04;15.85;;;5.45;;
51286;SDS011;37364;46.974;18.916;2022-07-29T06:54:35;6.13;;;5.45;;
51286;SDS011;37364;46.974;18.916;2022-07-29T06:57:06;12.35;;;4.95;;
51286;SDS011;37364;46.974;18.916;2022-07-29T06:59:36;12.60;;;5.10;;
51286;SDS011;37364;46.974;18.916;2022-07-29T07:02:06;29.17;;;5.00;;
51286;SDS011;37364;46.974;18.916;2022-07-29T07:04:37;6.13;;;4.60;;
51286;SDS011;37364;46.974;18.916;2022-07-29T07:07:10;10.85;;;4.90;;
51286;SDS011;37364;46.974;18.916;2022-07-29T07:09:40;14.02;;;4.97;;
51286;SDS011;37364;46.974;18.916;2022-07-29T07:12:10;18.05;;;4.88;;
51286;SDS011;37364;46.974;18.916;2022-07-29T07:14:41;11.13;;;4.88;;
51286;SDS011;37364;46.974;18.916;2022-07-29T07:17:11;8.80;;;5.13;;
51286;SDS011;37364;46.974;18.916;2022-07-29T07:19:41;25.35;;;5.78;;
51286;SDS011;37364;46.974;18.916;2022-07-29T07:22:14;6.88;;;4.60;;
51286;SDS011;37364;46.974;18.916;2022-07-29T07:24:44;14.05;;;6.00;;
51286;SDS011;37364;46.974;18.916;2022-07-29T07:27:14;18.05;;;4.93;;
51286;SDS011;37364;46.974;18.916;2022-07-29T07:29:44;17.92;;;4.90;;
51286;SDS011;37364;46.974;18.916;2022-07-29T07:32:15;30.02;;;5.38;;
51286;SDS011;37364;46.974;18.916;2022-07-29T07:34:46;29.70;;;5.45;;
51286;SDS011;37364;46.974;18.916;2022-07-29T07:37:19;13.60;;;5.13;;
51286;SDS011;37364;46.974;18.916;2022-07-29T07:39:49;10.55;;;5.28;;
51286;SDS011;37364;46.974;18.916;2022-07-29T07:42:19;21.65;;;5.32;;
51286;SDS011;37364;46.974;18.916;2022-07-29T07:44:49;17.48;;;5.35;;
51286;SDS011;37364;46.974;18.916;2022-07-29T07:47:39;15.07;;;5.13;;
51286;SDS011;37364;46.974;18.916;2022-07-29T07:50:10;7.72;;;4.82;;
51286;SDS011;37364;46.974;18.916;2022-07-29T07:52:50;11.07;;;5.22;;
51286;SDS011;37364;46.974;18.916;2022-07-29T07:55:24;8.32;;;5.10;;
51286;SDS011;37364;46.974;18.916;2022-07-29T07:58:15;19.90;;;5.32;;
51286;SDS011;37364;46.974;18.916;2022-07-29T08:00:45;13.23;;;5.10;;
51286;SDS011;37364;46.974;18.916;2022-07-29T08:03:16;19.83;;;4.40;;
51286;SDS011;37364;46.974;18.916;2022-07-29T08:05:46;15.27;;;5.18;;
51286;SDS011;37364;46.974;18.916;2022-07-29T08:08:20;13.60;;;5.30;;
51286;SDS011;37364;46.974;18.916;2022-07-29T08:10:50;15.23;;;5.00;;
51286;SDS011;37364;46.974;18.916;2022-07-29T08:13:31;17.05;;;5.55;;
51286;SDS011;37364;46.974;18.916;2022-07-29T08:16:01;13.98;;;4.90;;
51286;SDS011;37364;46.974;18.916;2022-07-29T08:18:38;10.45;;;4.70;;
51286;SDS011;37364;46.974;18.916;2022-07-29T08:21:09;20.42;;;4.85;;
51286;SDS011;37364;46.974;18.916;2022-07-29T08:23:43;14.75;;;4.30;;
51286;SDS011;37364;46.974;18.916;2022-07-29T08:26:28;8.18;;;4.43;;
51286;SDS011;37364;46.974;18.916;2022-07-29T08:28:58;15.18;;;4.78;;
51286;SDS011;37364;46.974;18.916;2022-07-29T08:31:30;12.43;;;4.63;;
51286;SDS011;37364;46.974;18.916;2022-07-29T08:34:00;10.98;;;4.07;;
51286;SDS011;37364;46.974;18.916;2022-07-29T08:36:31;21.98;;;6.03;;
51286;SDS011;37364;46.974;18.916;2022-07-29T08:39:03;13.85;;;3.85;;
51286;SDS011;37364;46.974;18.916;2022-07-29T08:41:34;11.65;;;4.35;;
51286;SDS011;37364;46.974;18.916;2022-07-29T08:44:04;10.18;;;3.92;;
51286;SDS011;37364;46.974;18.916;2022-07-29T08:46:37;14.80;;;4.38;;
51286;SDS011;37364;46.974;18.916;2022-07-29T08:49:07;16.48;;;4.40;;
51286;SDS011;37364;46.974;18.916;2022-07-29T08:51:39;9.52;;;3.97;;
51286;SDS011;37364;46.974;18.916;2022-07-29T08:54:21;11.88;;;4.18;;
51286;SDS011;37364;46.974;18.916;2022-07-29T08:56:53;11.32;;;4.47;;
51286;SDS011;37364;46.974;18.916;2022-07-29T08:59:26;8.20;;;4.05;;
51286;SDS011;37364;46.974;18.916;2022-07-29T09:02:00;12.05;;;4.93;;
51286;SDS011;37364;46.974;18.916;2022-07-29T09:04:34;5.82;;;4.15;;
51286;SDS011;37364;46.974;18.916;2022-07-29T09:07:05;23.05;;;4.13;;
51286;SDS011;37364;46.974;18.916;2022-07-29T09:09:38;16.45;;;4.18;;
51286;SDS011;37364;46.974;18.916;2022-07-29T09:12:09;12.07;;;3.90;;
51286;SDS011;37364;46.974;18.916;2022-07-29T09:14:55;10.85;;;4.00;;
51286;SDS011;37364;46.974;18.916;2022-07-29T09:17:40;23.77;;;5.78;;
51286;SDS011;37364;46.974;18.916;2022-07-29T09:20:12;6.13;;;3.97;;
51286;SDS011;37364;46.974;18.916;2022-07-29T09:22:45;24.50;;;3.80;;
51286;SDS011;37364;46.974;18.916;2022-07-29T09:28:07;16.55;;;3.50;;
51286;SDS011;37364;46.974;18.916;2022-07-29T09:30:43;12.02;;;4.80;;
51286;SDS011;37364;46.974;18.916;2022-07-29T09:33:21;9.48;;;3.72;;
51286;SDS011;37364;46.974;18.916;2022-07-29T09:36:02;12.88;;;3.60;;
51286;SDS011;37364;46.974;18.916;2022-07-29T09:38:33;16.20;;;3.80;;
51286;SDS011;37364;46.974;18.916;2022-07-29T09:41:07;10.18;;;3.25;;
51286;SDS011;37364;46.974;18.916;2022-07-29T09:43:37;11.95;;;3.08;;
51286;SDS011;37364;46.974;18.916;2022-07-29T09:46:09;5.22;;;3.28;;
51286;SDS011;37364;46.974;18.916;2022-07-29T09:48:41;22.20;;;3.50;;
51286;SDS011;37364;46.974;18.916;2022-07-29T09:51:18;11.02;;;3.70;;
51286;SDS011;37364;46.974;18.916;2022-07-29T09:54:11;7.00;;;3.33;;
51286;SDS011;37364;46.974;18.916;2022-07-29T09:56:55;12.82;;;3.55;;
51286;SDS011;37364;46.974;18.916;2022-07-29T09:59:25;8.77;;;3.70;;
51286;SDS011;37364;46.974;18.916;2022-07-29T10:01:56;11.43;;;2.83;;
51286;SDS011;37364;46.974;18.916;2022-07-29T10:04:36;16.90;;;3.67;;
51286;SDS011;37364;46.974;18.916;2022-07-29T10:07:08;3.80;;;3.03;;
51286;SDS011;37364;46.974;18.916;2022-07-29T10:09:38;9.07;;;2.97;;
51286;SDS011;37364;46.974;18.916;2022-07-29T10:12:21;18.77;;;3.55;;
51286;SDS011;37364;46.974;18.916;2022-07-29T10:14:52;5.40;;;3.08;;
51286;SDS011;37364;46.974;18.916;2022-07-29T10:17:22;26.02;;;3.08;;
51286;SDS011;37364;46.974;18.916;2022-07-29T10:19:52;8.23;;;2.88;;
51286;SDS011;37364;46.974;18.916;2022-07-29T10:22:23;8.80;;;2.97;;
51286;SDS011;37364;46.974;18.916;2022-07-29T10:25:14;4.15;;;2.83;;
51286;SDS011;37364;46.974;18.916;2022-07-29T10:27:48;5.23;;;2.67;;
51286;SDS011;37364;46.974;18.916;2022-07-29T10:30:19;13.10;;;3.38;;
51286;SDS011;37364;46.974;18.916;2022-07-29T10:36:02;7.78;;;3.28;;
51286;SDS011;37364;46.974;18.916;2022-07-29T10:38:43;6.25;;;2.80;;
51286;SDS011;37364;46.974;18.916;2022-07-29T10:41:26;14.20;;;3.00;;
51286;SDS011;37364;46.974;18.916;2022-07-29T10:44:15;8.15;;;2.92;;
51286;SDS011;37364;46.974;18.916;2022-07-29T10:46:49;7.80;;;2.83;;
51286;SDS011;37364;46.974;18.916;2022-07-29T10:49:21;5.22;;;2.85;;
51286;SDS011;37364;46.974;18.916;2022-07-29T10:51:57;8.52;;;3.10;;
51286;SDS011;37364;46.974;18.916;2022-07-29T10:54:41;8.77;;;3.00;;
51286;SDS011;37364;46.974;18.916;2022-07-29T10:57:18;10.52;;;3.28;;
51286;SDS011;37364;46.974;18.916;2022-07-29T11:00:28;7.63;;;3.13;;
51286;SDS011;37364;46.974;18.916;2022-07-29T11:03:02;9.43;;;2.70;;
51286;SDS011;37364;46.974;18.916;2022-07-29T11:08:34;8.93;;;3.00;;
51286;SDS011;37364;46.974;18.916;2022-07-29T11:14:16;12.18;;;3.30;;
51286;SDS011;37364;46.974;18.916;2022-07-29T11:17:01;21.63;;;3.50;;
51286;SDS011;37364;46.974;18.916;2022-07-29T11:19:34;6.20;;;3.67;;
51286;SDS011;37364;46.974;18.916;2022-07-29T11:25:13;13.35;;;2.88;;
51286;SDS011;37364;46.974;18.916;2022-07-29T11:27:43;12.80;;;3.85;;
51286;SDS011;37364;46.974;18.916;2022-07-29T11:30:14;7.88;;;2.50;;
51286;SDS011;37364;46.974;18.916;2022-07-29T11:32:56;16.85;;;3.30;;
51286;SDS011;37364;46.974;18.916;2022-07-29T11:35:26;10.85;;;3.50;;
51286;SDS011;37364;46.974;18.916;2022-07-29T11:43:53;8.98;;;3.50;;
51286;SDS011;37364;46.974;18.916;2022-07-29T11:46:43;12.13;;;2.80;;
51286;SDS011;37364;46.974;18.916;2022-07-29T11:49:21;9.95;;;2.88;;
51286;SDS011;37364;46.974;18.916;2022-07-29T11:51:58;11.15;;;2.78;;
51286;SDS011;37364;46.974;18.916;2022-07-29T11:57:22;10.68;;;3.25;;
51286;SDS011;37364;46.974;18.916;2022-07-29T12:00:03;8.48;;;2.75;;
51286;SDS011;37364;46.974;18.916;2022-07-29T12:02:38;4.55;;;2.42;;
51286;SDS011;37364;46.974;18.916;2022-07-29T12:05:17;7.05;;;3.20;;
51286;SDS011;37364;46.974;18.916;2022-07-29T12:08:06;8.50;;;3.13;;
51286;SDS011;37364;46.974;18.916;2022-07-29T12:10:40;14.60;;;2.95;;
51286;SDS011;37364;46.974;18.916;2022-07-29T12:13:13;6.70;;;2.80;;
51286;SDS011;37364;46.974;18.916;2022-07-29T12:15:51;14.85;;;3.08;;
51286;SDS011;37364;46.974;18.916;2022-07-29T12:18:25;6.47;;;2.40;;
51286;SDS011;37364;46.974;18.916;2022-07-29T12:20:59;7.10;;;3.03;;
51286;SDS011;37364;46.974;18.916;2022-07-29T12:23:30;8.88;;;3.20;;
51286;SDS011;37364;46.974;18.916;2022-07-29T12:26:03;11.82;;;3.00;;
51286;SDS011;37364;46.974;18.916;2022-07-29T12:28:36;12.90;;;2.92;;
51286;SDS011;37364;46.974;18.916;2022-07-29T12:31:12;8.00;;;2.72;;
51286;SDS011;37364;46.974;18.916;2022-07-29T12:34:03;10.23;;;4.25;;
51286;SDS011;37364;46.974;18.916;2022-07-29T12:36:37;23.50;;;3.97;;
51286;SDS011;37364;46.974;18.916;2022-07-29T12:39:10;12.80;;;2.80;;
51286;SDS011;37364;46.974;18.916;2022-07-29T12:41:41;6.22;;;2.90;;
51286;SDS011;37364;46.974;18.916;2022-07-29T12:44:12;5.68;;;2.45;;
51286;SDS011;37364;46.974;18.916;2022-07-29T12:46:42;11.50;;;2.58;;
51286;SDS011;37364;46.974;18.916;2022-07-29T12:49:20;4.53;;;2.28;;
51286;SDS011;37364;46.974;18.916;2022-07-29T12:51:53;7.57;;;2.85;;
51286;SDS011;37364;46.974;18.916;2022-07-29T12:54:25;4.78;;;2.30;;
51286;SDS011;37364;46.974;18.916;2022-07-29T12:56:58;5.55;;;2.80;;
51286;SDS011;37364;46.974;18.916;2022-07-29T12:59:31;8.52;;;2.90;;
51286;SDS011;37364;46.974;18.916;2022-07-29T13:02:03;21.55;;;2.80;;
51286;SDS011;37364;46.974;18.916;2022-07-29T13:04:34;13.30;;;2.72;;
51286;SDS011;37364;46.974;18.916;2022-07-29T13:07:07;8.80;;;3.20;;
51286;SDS011;37364;46.974;18.916;2022-07-29T13:09:41;14.70;;;3.17;;
51286;SDS011;37364;46.974;18.916;2022-07-29T13:12:13;8.03;;;2.77;;
51286;SDS011;37364;46.974;18.916;2022-07-29T13:14:44;3.28;;;2.92;;
51286;SDS011;37364;46.974;18.916;2022-07-29T13:17:16;6.95;;;3.30;;
51286;SDS011;37364;46.974;18.916;2022-07-29T13:19:50;9.38;;;2.97;;
51286;SDS011;37364;46.974;18.916;2022-07-29T13:22:24;6.10;;;2.87;;
51286;SDS011;37364;46.974;18.916;2022-07-29T13:24:56;12.32;;;3.85;;
51286;SDS011;37364;46.974;18.916;2022-07-29T13:29:59;8.85;;;4.00;;
51286;SDS011;37364;46.974;18.916;2022-07-29T13:32:31;11.37;;;4.50;;
51286;SDS011;37364;46.974;18.916;2022-07-29T13:35:04;17.52;;;6.70;;
51286;SDS011;37364;46.974;18.916;2022-07-29T13:37:38;13.75;;;5.75;;
51286;SDS011;37364;46.974;18.916;2022-07-29T13:40:09;13.98;;;4.32;;
51286;SDS011;37364;46.974;18.916;2022-07-29T13:42:41;7.40;;;3.77;;
51286;SDS011;37364;46.974;18.916;2022-07-29T13:45:12;19.73;;;4.93;;
51286;SDS011;37364;46.974;18.916;2022-07-29T13:47:48;19.13;;;6.85;;
51286;SDS011;37364;46.974;18.916;2022-07-29T13:50:18;10.88;;;4.90;;
51286;SDS011;37364;46.974;18.916;2022-07-29T13:52:51;16.38;;;5.10;;
51286;SDS011;37364;46.974;18.916;2022-07-29T13:55:22;7.07;;;3.58;;
51286;SDS011;37364;46.974;18.916;2022-07-29T13:57:52;9.25;;;3.28;;
51286;SDS011;37364;46.974;18.916;2022-07-29T14:00:22;11.68;;;2.97;;
51286;SDS011;37364;46.974;18.916;2022-07-29T14:02:53;12.10;;;2.80;;
51286;SDS011;37364;46.974;18.916;2022-07-29T14:05:23;4.65;;;3.28;;
51286;SDS011;37364;46.974;18.916;2022-07-29T14:07:58;6.18;;;2.95;;
51286;SDS011;37364;46.974;18.916;2022-07-29T14:10:29;16.48;;;3.55;;
51286;SDS011;37364;46.974;18.916;2022-07-29T14:12:59;5.35;;;3.22;;
51286;SDS011;37364;46.974;18.916;2022-07-29T14:15:31;10.75;;;3.80;;
51286;SDS011;37364;46.974;18.916;2022-07-29T14:18:05;8.57;;;3.88;;
51286;SDS011;37364;46.974;18.916;2022-07-29T14:20:35;16.85;;;3.60;;
51286;SDS011;37364;46.974;18.916;2022-07-29T14:23:08;10.88;;;3.40;;
51286;SDS011;37364;46.974;18.916;2022-07-29T14:25:42;12.02;;;3.72;;
51286;SDS011;37364;46.974;18.916;2022-07-29T14:28:15;6.85;;;3.70;;
51286;SDS011;37364;46.974;18.916;2022-07-29T14:30:46;10.82;;;3.28;;
51286;SDS011;37364;46.974;18.916;2022-07-29T14:33:17;17.83;;;3.30;;
51286;SDS011;37364;46.974;18.916;2022-07-29T14:35:48;5.57;;;3.70;;
51286;SDS011;37364;46.974;18.916;2022-07-29T14:38:21;12.88;;;3.97;;
51286;SDS011;37364;46.974;18.916;2022-07-29T14:40:53;9.18;;;3.10;;
51286;SDS011;37364;46.974;18.916;2022-07-29T14:43:24;10.40;;;3.53;;
51286;SDS011;37364;46.974;18.916;2022-07-29T14:45:55;9.40;;;3.40;;
51286;SDS011;37364;46.974;18.916;2022-07-29T14:48:30;5.75;;;3.40;;
51286;SDS011;37364;46.974;18.916;2022-07-29T14:51:02;12.45;;;3.47;;
51286;SDS011;37364;46.974;18.916;2022-07-29T14:53:35;17.52;;;3.55;;
51286;SDS011;37364;46.974;18.916;2022-07-29T14:56:06;5.57;;;3.47;;
51286;SDS011;37364;46.974;18.916;2022-07-29T14:58:56;5.05;;;3.47;;
51286;SDS011;37364;46.974;18.916;2022-07-29T15:01:27;9.63;;;3.40;;
51286;SDS011;37364;46.974;18.916;2022-07-29T15:03:57;9.43;;;3.33;;
51286;SDS011;37364;46.974;18.916;2022-07-29T15:06:27;11.55;;;3.70;;
51286;SDS011;37364;46.974;18.916;2022-07-29T15:09:00;9.13;;;3.80;;
51286;SDS011;37364;46.974;18.916;2022-07-29T15:11:30;17.08;;;3.70;;
51286;SDS011;37364;46.974;18.916;2022-07-29T15:17:40;8.85;;;3.42;;
51286;SDS011;37364;46.974;18.916;2022-07-29T15:20:10;16.13;;;3.42;;
51286;SDS011;37364;46.974;18.916;2022-07-29T15:22:41;5.65;;;3.47;;
51286;SDS011;37364;46.974;18.916;2022-07-29T15:25:13;10.25;;;3.25;;
51286;SDS011;37364;46.974;18.916;2022-07-29T15:27:44;6.93;;;3.45;;
51286;SDS011;37364;46.974;18.916;2022-07-29T15:30:18;15.88;;;3.88;;
51286;SDS011;37364;46.974;18.916;2022-07-29T15:32:59;8.95;;;3.80;;
51286;SDS011;37364;46.974;18.916;2022-07-29T15:35:30;9.98;;;3.15;;
51286;SDS011;37364;46.974;18.916;2022-07-29T15:38:06;6.18;;;3.33;;
51286;SDS011;37364;46.974;18.916;2022-07-29T15:40:39;16.40;;;3.67;;
51286;SDS011;37364;46.974;18.916;2022-07-29T15:43:11;10.82;;;3.58;;